首页
METAR-TAF:

METAR-TAF

机场 :

摩爾曼斯克, 俄罗斯

纬度: 68-58N, 经度: 033-03E, 海拔: 51米

当前天气观测

该预报发布于30分钟前的01:30 UTC
风速2节,风向南转西南
温度 3°C
湿度 87%
气压 990 hPa
能见度10公里或以上
1500米以下无云,无积雨云

METAR: ULMM 220130Z 20001MPS CAVOK 03/01 Q0990 R13/290150 NOSIG RMK QFE736

时间: 05:00 (02:00 UTC)

预报

该预报发布于3小时和10分钟前的22:50 UTC
预报有效从22日的 00点(UTC)到 22日的 24点(UTC)
风速6节,风向南转西南
能見度: 6000
多云层高于1100英尺
短暂存在
从 22日的 00点(UTC)到 22日的 06点(UTC)
风速4节,风向
能見度: 5000
多云层高于1100英尺, 积雨云.
小阵雨, 轻雾
短暂存在
从 22日的 06点(UTC)到 22日的 24点(UTC)
风速6节,风向西转西南,有时为16节阵风
多云层高于1100英尺, 积雨云.
小阵雪

TAF: ULMM 212250Z 2200/2224 21003MPS 6000 BKN011 TEMPO 2200/2206 17002MPS 5000 -SHRA BR BKN011CB TEMPO 2206/2224 25003G08MPS -SHSN BKN011CB

超过4000个机场的气象观测和天气预报(METAR&TAF报告)。

可查询的气象台以黄色和红色小点在地图上表示。

将鼠标移到小点上方,可查看气象台名称。

然后点击查看天气观测和预报。

如需切换地图:点击带黑十字的绿色按钮放大地图;点击带横线的绿色按钮缩小地图;或者点击绿色箭头查看邻近地区的地图。


METAR-TAF: